createdAt,value
2023-05-24T00:02:21.461Z,19.50
2023-05-24T00:04:49.551Z,19.40
2023-05-24T00:07:16.682Z,19.40
2023-05-24T00:09:43.553Z,19.30
2023-05-24T00:12:10.967Z,19.30
2023-05-24T00:14:38.069Z,19.30
2023-05-24T00:17:05.417Z,19.30
2023-05-24T00:19:32.480Z,19.30
2023-05-24T00:21:59.463Z,19.30
2023-05-24T00:24:26.401Z,19.30
2023-05-24T00:26:53.556Z,19.30
2023-05-24T00:29:21.370Z,19.30
2023-05-24T00:31:48.485Z,19.20
2023-05-24T00:34:15.706Z,19.20
2023-05-24T00:36:42.752Z,19.20
2023-05-24T00:39:09.943Z,19.20
2023-05-24T00:41:37.047Z,19.10
2023-05-24T00:44:04.194Z,19.10
2023-05-24T00:46:33.592Z,19.10
2023-05-24T00:49:02.065Z,19.10
2023-05-24T00:51:29.303Z,19.10
2023-05-24T00:53:56.909Z,19.00
2023-05-24T00:56:24.008Z,19.00
2023-05-24T00:58:54.850Z,18.90
2023-05-24T01:01:25.875Z,19.00
2023-05-24T01:03:54.505Z,18.90
2023-05-24T01:06:23.571Z,18.90
2023-05-24T01:09:14.126Z,18.90
2023-05-24T01:11:47.416Z,18.90
2023-05-24T01:14:23.755Z,18.90
2023-05-24T01:16:59.677Z,18.80
2023-05-24T01:19:32.057Z,18.80
2023-05-24T01:22:17.972Z,18.70
2023-05-24T01:25:07.432Z,18.70
2023-05-24T01:27:37.452Z,18.70
2023-05-24T01:30:06.486Z,18.70
2023-05-24T01:32:34.269Z,18.70
2023-05-24T01:35:01.660Z,18.60
2023-05-24T01:37:28.578Z,18.70
2023-05-24T01:39:55.798Z,18.60
2023-05-24T01:42:48.985Z,18.70
2023-05-24T01:45:55.675Z,18.60
2023-05-24T01:48:55.736Z,18.50
2023-05-24T01:51:26.240Z,18.60
2023-05-24T01:53:56.022Z,18.60
2023-05-24T01:56:23.787Z,18.50
2023-05-24T01:58:52.933Z,18.50
2023-05-24T02:01:20.254Z,18.40
2023-05-24T02:03:48.287Z,18.40
2023-05-24T02:06:15.357Z,18.40
2023-05-24T02:08:42.525Z,18.40
2023-05-24T02:11:09.692Z,18.30
2023-05-24T02:13:36.796Z,18.30
2023-05-24T02:16:05.264Z,18.20
2023-05-24T02:18:34.909Z,18.10
2023-05-24T02:21:02.709Z,18.10
2023-05-24T02:23:29.906Z,18.00
2023-05-24T02:25:57.110Z,17.90
2023-05-24T02:28:24.167Z,17.80
2023-05-24T02:30:51.434Z,17.70
2023-05-24T02:33:18.460Z,17.60
2023-05-24T02:35:45.671Z,17.60
2023-05-24T02:38:12.781Z,17.60
2023-05-24T02:40:39.966Z,17.50
2023-05-24T02:43:07.096Z,17.50
2023-05-24T02:45:34.344Z,17.50
2023-05-24T02:48:01.415Z,17.40
2023-05-24T02:50:28.497Z,17.40
2023-05-24T02:52:55.696Z,17.40
2023-05-24T02:55:22.775Z,17.30
2023-05-24T02:57:49.620Z,17.30
2023-05-24T03:00:18.613Z,17.30
2023-05-24T03:02:47.952Z,17.30
2023-05-24T03:05:15.138Z,17.20
2023-05-24T03:07:42.499Z,17.20
2023-05-24T03:10:10.033Z,17.20
2023-05-24T03:12:37.270Z,17.10
2023-05-24T03:15:04.674Z,17.10
2023-05-24T03:17:31.815Z,17.10
2023-05-24T03:19:59.120Z,17.10
2023-05-24T03:22:25.963Z,17.10
2023-05-24T03:24:52.997Z,17.00
2023-05-24T03:27:20.216Z,17.10
2023-05-24T03:29:47.329Z,17.10
2023-05-24T03:32:14.460Z,17.10
2023-05-24T03:34:41.592Z,17.10
2023-05-24T03:37:08.557Z,17.10
2023-05-24T03:39:35.597Z,17.00
2023-05-24T03:42:02.559Z,17.00
2023-05-24T03:44:29.701Z,17.10
2023-05-24T03:46:56.848Z,17.10
2023-05-24T03:49:24.069Z,17.10
2023-05-24T03:51:51.153Z,17.10
2023-05-24T03:54:18.454Z,17.10
2023-05-24T03:56:45.753Z,17.10
2023-05-24T03:59:12.965Z,17.10
2023-05-24T04:01:40.109Z,17.10
2023-05-24T04:04:07.273Z,17.00
2023-05-24T04:06:36.728Z,17.10
2023-05-24T04:09:05.579Z,17.00
2023-05-24T04:11:32.729Z,17.00
2023-05-24T04:14:02.676Z,17.00
2023-05-24T04:16:31.889Z,16.90
2023-05-24T04:19:01.107Z,17.00
2023-05-24T04:21:28.422Z,17.00
2023-05-24T04:23:56.548Z,16.90
2023-05-24T04:26:23.594Z,16.90
2023-05-24T04:28:52.560Z,16.90
2023-05-24T04:31:20.449Z,16.90
2023-05-24T04:33:47.959Z,17.00
2023-05-24T04:36:14.897Z,17.00
2023-05-24T04:38:42.044Z,17.00
2023-05-24T04:41:10.598Z,17.10
2023-05-24T04:43:37.562Z,17.10
2023-05-24T04:46:06.304Z,17.20
2023-05-24T04:48:34.752Z,17.30
2023-05-24T04:51:01.965Z,17.30
2023-05-24T04:53:29.147Z,17.50
2023-05-24T04:55:56.366Z,17.70
2023-05-24T04:58:23.408Z,17.80
2023-05-24T05:00:50.581Z,18.00
2023-05-24T05:03:17.780Z,18.20
2023-05-24T05:05:45.782Z,18.40
2023-05-24T05:08:14.139Z,18.60
2023-05-24T05:10:41.168Z,18.80
2023-05-24T05:13:08.452Z,19.00
2023-05-24T05:15:35.579Z,19.00
2023-05-24T05:18:02.565Z,19.20
2023-05-24T05:20:29.500Z,19.30
2023-05-24T05:22:56.686Z,19.40
2023-05-24T05:25:23.928Z,19.50
2023-05-24T05:27:50.853Z,19.60
2023-05-24T05:30:17.809Z,19.70
2023-05-24T05:32:44.947Z,19.80
2023-05-24T05:35:12.006Z,19.90
2023-05-24T05:37:39.146Z,19.90
2023-05-24T05:40:06.889Z,20.00
2023-05-24T05:42:33.866Z,20.00
2023-05-24T05:45:00.742Z,20.10
2023-05-24T05:47:27.609Z,20.10
2023-05-24T05:49:54.471Z,20.00
2023-05-24T05:52:21.450Z,20.00
2023-05-24T05:54:48.307Z,19.90
2023-05-24T05:57:16.366Z,19.80
2023-05-24T05:59:43.292Z,19.70
2023-05-24T06:02:10.346Z,19.70
2023-05-24T06:04:37.230Z,19.60
2023-05-24T06:07:04.144Z,19.60
2023-05-24T06:09:31.044Z,19.60
2023-05-24T06:11:57.899Z,19.60
2023-05-24T06:14:25.413Z,19.60
2023-05-24T06:16:54.539Z,19.60
2023-05-24T06:19:21.854Z,19.60
2023-05-24T06:21:50.641Z,19.70
2023-05-24T06:24:21.381Z,19.70
2023-05-24T06:26:49.262Z,19.80
2023-05-24T06:29:16.217Z,19.90
2023-05-24T06:31:43.690Z,19.90
2023-05-24T06:34:10.745Z,20.00
2023-05-24T06:36:41.515Z,20.00
2023-05-24T06:39:10.199Z,20.00
2023-05-24T06:41:37.764Z,20.10
2023-05-24T06:44:04.713Z,20.10
2023-05-24T06:46:32.048Z,20.10
2023-05-24T06:48:59.140Z,20.20
2023-05-24T06:51:26.538Z,20.20
2023-05-24T06:53:53.678Z,20.20
2023-05-24T06:56:20.537Z,20.20
2023-05-24T06:58:47.852Z,20.10
2023-05-24T07:01:15.489Z,20.10
2023-05-24T07:03:42.730Z,20.10
2023-05-24T07:06:12.300Z,20.10
2023-05-24T07:08:39.141Z,20.10
2023-05-24T07:11:06.317Z,20.10
2023-05-24T07:13:33.366Z,20.20
2023-05-24T07:16:00.599Z,20.20
2023-05-24T07:18:27.498Z,20.20
2023-05-24T07:20:55.037Z,20.30
2023-05-24T07:23:21.981Z,20.30
2023-05-24T07:25:49.505Z,20.40
2023-05-24T07:28:20.112Z,20.40
2023-05-24T07:30:47.321Z,20.40
2023-05-24T07:33:14.345Z,20.50
2023-05-24T07:35:41.993Z,20.50
2023-05-24T07:38:08.952Z,20.60
2023-05-24T07:40:35.850Z,20.60
2023-05-24T07:43:04.058Z,20.70
2023-05-24T07:45:31.858Z,20.70
2023-05-24T07:47:58.901Z,20.70
2023-05-24T07:50:26.572Z,20.70
2023-05-24T07:52:53.594Z,20.70
2023-05-24T07:55:20.674Z,20.80
2023-05-24T07:57:47.781Z,20.90
2023-05-24T08:00:15.245Z,21.00
2023-05-24T08:02:46.558Z,21.10
2023-05-24T08:05:13.889Z,21.20
2023-05-24T08:07:42.096Z,21.20
2023-05-24T08:10:14.687Z,21.30
2023-05-24T08:12:42.305Z,21.40
2023-05-24T08:15:09.638Z,21.60
2023-05-24T08:17:38.927Z,21.70
2023-05-24T08:20:10.077Z,21.80
2023-05-24T08:22:37.808Z,22.00
2023-05-24T08:25:06.257Z,22.00
2023-05-24T08:27:33.238Z,22.10
2023-05-24T08:30:00.131Z,22.20
2023-05-24T08:32:27.268Z,22.30
2023-05-24T08:35:03.578Z,22.30
2023-05-24T08:37:37.867Z,22.30
2023-05-24T08:40:05.288Z,22.30
2023-05-24T08:42:32.346Z,22.30
2023-05-24T08:45:13.365Z,22.20
2023-05-24T08:47:41.275Z,22.20
2023-05-24T08:50:09.089Z,22.20
2023-05-24T08:52:36.655Z,22.20
2023-05-24T08:55:07.522Z,22.30
2023-05-24T08:57:38.172Z,22.40
2023-05-24T09:00:07.162Z,22.60
2023-05-24T09:02:34.482Z,22.70
2023-05-24T09:05:02.466Z,22.70
2023-05-24T09:07:32.382Z,22.80
2023-05-24T09:10:07.836Z,22.90
2023-05-24T09:12:38.542Z,23.00
2023-05-24T09:15:08.648Z,22.90
2023-05-24T09:17:37.019Z,23.00
2023-05-24T09:20:07.214Z,22.90
2023-05-24T09:22:36.313Z,22.90
2023-05-24T09:25:06.695Z,22.90
2023-05-24T09:27:38.485Z,23.00
2023-05-24T09:30:10.374Z,23.00
2023-05-24T09:32:37.706Z,23.00
2023-05-24T09:35:10.035Z,23.00
2023-05-24T09:37:39.005Z,23.00
2023-05-24T09:40:07.332Z,22.90
2023-05-24T09:42:34.441Z,22.90
2023-05-24T09:45:11.379Z,23.00
2023-05-24T09:47:41.108Z,22.90
2023-05-24T09:50:17.693Z,23.10
2023-05-24T09:52:45.210Z,23.30
2023-05-24T09:55:17.832Z,23.40
2023-05-24T09:57:53.167Z,23.60
2023-05-24T10:00:25.092Z,23.70
2023-05-24T10:03:02.735Z,23.90
2023-05-24T10:05:30.556Z,24.00
2023-05-24T10:08:01.116Z,24.10
2023-05-24T10:10:29.851Z,24.30
2023-05-24T10:12:58.148Z,24.40
2023-05-24T10:15:26.234Z,24.60
2023-05-24T10:17:56.928Z,24.70
2023-05-24T10:20:24.975Z,24.90
2023-05-24T10:23:04.153Z,25.00
2023-05-24T10:25:34.809Z,25.10
2023-05-24T10:28:08.860Z,25.10
2023-05-24T10:30:48.111Z,25.00
2023-05-24T10:33:16.950Z,25.00
2023-05-24T10:35:44.562Z,24.90
2023-05-24T10:38:11.759Z,24.90
2023-05-24T10:40:45.290Z,24.80
2023-05-24T10:43:12.239Z,24.80
2023-05-24T10:45:42.223Z,24.90
2023-05-24T10:48:15.672Z,24.80
2023-05-24T10:50:43.932Z,24.80
2023-05-24T10:53:19.028Z,24.90
2023-05-24T10:56:09.573Z,25.10
2023-05-24T10:58:58.909Z,25.20
2023-05-24T11:01:32.725Z,25.30
2023-05-24T11:04:19.069Z,25.40
2023-05-24T11:06:49.644Z,25.50
2023-05-24T11:09:17.763Z,25.60
2023-05-24T11:11:46.368Z,25.70
2023-05-24T11:14:14.792Z,25.70
2023-05-24T11:16:45.925Z,25.70
2023-05-24T11:19:21.107Z,25.80
2023-05-24T11:21:53.801Z,25.80
2023-05-24T11:24:22.240Z,25.80
2023-05-24T11:26:50.906Z,25.90
2023-05-24T11:29:19.227Z,25.90
2023-05-24T11:31:54.217Z,25.90
2023-05-24T11:34:21.944Z,25.90
2023-05-24T11:36:48.963Z,26.00
2023-05-24T11:39:16.574Z,26.10
2023-05-24T11:41:43.858Z,26.20
2023-05-24T11:44:11.928Z,26.30
2023-05-24T11:46:40.709Z,26.40
2023-05-24T11:49:07.614Z,26.50
2023-05-24T11:51:35.918Z,26.50
2023-05-24T11:54:02.876Z,26.50
2023-05-24T11:56:33.631Z,26.50
2023-05-24T11:59:16.526Z,26.50
2023-05-24T12:01:44.580Z,26.80
2023-05-24T12:04:12.279Z,27.00
2023-05-24T12:06:41.846Z,27.30
2023-05-24T12:09:16.937Z,27.70
2023-05-24T12:11:46.911Z,28.00
2023-05-24T12:14:26.156Z,28.00
2023-05-24T12:16:56.243Z,27.90
2023-05-24T12:19:33.170Z,27.60
2023-05-24T12:22:01.476Z,27.30
2023-05-24T12:24:31.426Z,26.80
2023-05-24T12:27:03.988Z,26.40
2023-05-24T12:29:40.344Z,26.10
2023-05-24T12:32:12.633Z,25.90
2023-05-24T12:34:44.873Z,25.60
2023-05-24T12:37:13.678Z,25.50
2023-05-24T12:39:43.408Z,25.40
2023-05-24T12:42:15.049Z,25.40
2023-05-24T12:44:42.084Z,25.60
2023-05-24T12:47:09.582Z,26.10
2023-05-24T12:49:36.937Z,26.50
2023-05-24T12:52:04.496Z,26.80
2023-05-24T12:54:31.885Z,26.90
2023-05-24T12:57:03.400Z,26.90
2023-05-24T12:59:30.653Z,26.90
2023-05-24T13:01:58.281Z,26.90
2023-05-24T13:04:27.313Z,26.90
2023-05-24T13:06:54.818Z,26.80
2023-05-24T13:09:23.518Z,26.80
2023-05-24T13:11:51.310Z,26.70
2023-05-24T13:14:19.802Z,26.60
2023-05-24T13:16:47.412Z,26.60
2023-05-24T13:19:17.734Z,26.50
2023-05-24T13:21:45.526Z,26.40
2023-05-24T13:24:18.758Z,26.30
2023-05-24T13:26:46.211Z,26.50
2023-05-24T13:31:44.025Z,27.90
2023-05-24T13:34:11.477Z,28.90
2023-05-24T13:36:38.595Z,29.70
2023-05-24T13:41:37.810Z,30.80
2023-05-24T13:44:04.760Z,31.40
2023-05-24T13:46:31.727Z,31.80
2023-05-24T13:48:59.763Z,32.00
2023-05-24T13:51:27.237Z,32.10
2023-05-24T13:53:55.623Z,32.00
2023-05-24T13:56:24.228Z,31.90
2023-05-24T13:58:52.571Z,31.90
2023-05-24T14:01:19.880Z,32.00
2023-05-24T14:03:46.913Z,32.20
2023-05-24T14:06:13.928Z,32.10
2023-05-24T14:08:40.949Z,31.90
2023-05-24T14:11:07.950Z,31.80
2023-05-24T14:16:05.724Z,31.60
2023-05-24T14:18:34.115Z,31.30
2023-05-24T14:21:01.111Z,31.10
2023-05-24T14:23:30.469Z,31.10
2023-05-24T14:25:57.664Z,30.90
2023-05-24T14:28:24.598Z,30.70
2023-05-24T14:30:51.658Z,30.60
2023-05-24T14:33:18.550Z,30.30
2023-05-24T14:35:46.557Z,30.00
2023-05-24T14:38:13.605Z,29.70
2023-05-24T14:40:40.940Z,29.30
2023-05-24T14:43:10.987Z,28.90
2023-05-24T14:45:42.360Z,28.70
2023-05-24T14:48:13.593Z,28.50
2023-05-24T14:50:41.093Z,28.30
2023-05-24T14:53:14.431Z,28.00
2023-05-24T14:55:43.517Z,27.60
2023-05-24T14:58:12.034Z,27.30
2023-05-24T15:00:39.738Z,27.10
2023-05-24T15:03:08.092Z,26.90
2023-05-24T15:05:36.468Z,26.70
2023-05-24T15:08:04.734Z,26.40
2023-05-24T15:10:31.808Z,26.20
2023-05-24T15:12:58.732Z,26.00
2023-05-24T15:15:25.576Z,25.70
2023-05-24T15:17:52.615Z,25.50
2023-05-24T15:20:19.823Z,25.30
2023-05-24T15:22:46.757Z,25.00
2023-05-24T15:25:13.807Z,24.80
2023-05-24T15:27:40.810Z,24.70
2023-05-24T15:30:08.158Z,24.60
2023-05-24T15:32:35.070Z,24.50
2023-05-24T15:35:02.113Z,24.50
2023-05-24T15:37:28.974Z,24.50
2023-05-24T15:39:55.890Z,24.60
2023-05-24T15:42:24.714Z,24.50
2023-05-24T15:44:51.799Z,24.50
2023-05-24T15:47:21.241Z,24.50
2023-05-24T15:49:49.925Z,24.60
2023-05-24T15:52:17.217Z,24.60
2023-05-24T15:54:44.233Z,24.60
2023-05-24T15:57:11.241Z,24.40
2023-05-24T15:59:38.776Z,24.30
2023-05-24T16:02:09.133Z,24.30
2023-05-24T16:04:36.270Z,24.30
2023-05-24T16:07:03.259Z,24.30
2023-05-24T16:09:30.205Z,24.40
2023-05-24T16:11:57.138Z,24.40
2023-05-24T16:14:24.010Z,24.40
2023-05-24T16:16:51.324Z,24.30
2023-05-24T16:19:21.389Z,24.10
2023-05-24T16:21:48.767Z,23.90
2023-05-24T16:24:15.848Z,23.70
2023-05-24T16:26:42.907Z,23.50
2023-05-24T16:29:11.456Z,23.40
2023-05-24T16:31:38.346Z,23.20
2023-05-24T16:34:05.192Z,23.00
2023-05-24T16:36:33.011Z,22.90
2023-05-24T16:38:59.987Z,22.70
2023-05-24T16:41:29.357Z,22.60
2023-05-24T16:43:56.336Z,22.40
2023-05-24T16:46:23.947Z,22.10
2023-05-24T16:48:51.027Z,22.00
2023-05-24T16:51:18.287Z,21.80
2023-05-24T16:53:45.324Z,21.60
2023-05-24T16:56:12.214Z,21.50
2023-05-24T16:58:39.056Z,21.30
2023-05-24T17:01:06.110Z,21.30
2023-05-24T17:03:34.275Z,21.10
2023-05-24T17:06:03.840Z,21.00
2023-05-24T17:08:37.493Z,20.90
2023-05-24T17:11:05.556Z,20.80
2023-05-24T17:13:33.203Z,20.70
2023-05-24T17:16:00.800Z,20.60
2023-05-24T17:18:28.618Z,20.40
2023-05-24T17:21:01.425Z,20.20
2023-05-24T17:23:31.083Z,20.10
2023-05-24T17:25:58.384Z,20.00
2023-05-24T17:28:29.605Z,19.90
2023-05-24T17:30:59.441Z,19.80
2023-05-24T17:33:28.067Z,19.70
2023-05-24T17:35:56.709Z,19.60
2023-05-24T17:38:28.587Z,19.60
2023-05-24T17:40:59.729Z,19.50
2023-05-24T17:43:32.918Z,19.50
2023-05-24T17:46:06.780Z,19.40
2023-05-24T17:48:41.978Z,19.20
2023-05-24T17:51:10.049Z,19.20
2023-05-24T17:53:38.153Z,19.10
2023-05-24T17:56:05.740Z,19.00
2023-05-24T17:58:36.282Z,18.90
2023-05-24T18:01:05.387Z,18.80
2023-05-24T18:03:33.705Z,18.70
2023-05-24T18:06:01.242Z,18.60
2023-05-24T18:08:28.213Z,18.50
2023-05-24T18:10:55.064Z,18.50
2023-05-24T18:13:21.972Z,18.40
2023-05-24T18:15:50.081Z,18.40
2023-05-24T18:18:17.489Z,18.30
2023-05-24T18:20:44.506Z,18.20
2023-05-24T18:23:11.761Z,18.20
2023-05-24T18:25:38.615Z,18.10
2023-05-24T18:28:05.757Z,18.00
2023-05-24T18:30:32.807Z,17.90
2023-05-24T18:33:07.147Z,17.90
2023-05-24T18:35:35.800Z,17.80
2023-05-24T18:38:03.437Z,17.70
2023-05-24T18:40:30.707Z,17.60
2023-05-24T18:42:57.783Z,17.50
2023-05-24T18:45:24.907Z,17.40
2023-05-24T18:47:52.509Z,17.40
2023-05-24T18:50:23.334Z,17.30
2023-05-24T18:52:50.584Z,17.30
2023-05-24T18:55:17.611Z,17.20
2023-05-24T18:57:44.585Z,17.20
2023-05-24T19:00:12.320Z,17.20
2023-05-24T19:02:40.498Z,17.10
2023-05-24T19:05:08.429Z,17.10
2023-05-24T19:07:35.678Z,17.00
2023-05-24T19:10:03.122Z,17.00
2023-05-24T19:12:30.340Z,17.00
2023-05-24T19:14:57.432Z,16.90
2023-05-24T19:17:25.382Z,16.90
2023-05-24T19:19:52.590Z,16.80
2023-05-24T19:22:19.934Z,16.80
2023-05-24T19:24:47.325Z,16.80
2023-05-24T19:27:14.682Z,16.80
2023-05-24T19:29:42.595Z,16.70
2023-05-24T19:32:11.638Z,16.80
2023-05-24T19:34:42.302Z,16.70
2023-05-24T19:37:09.829Z,16.60
2023-05-24T19:39:37.569Z,16.60
2023-05-24T19:42:05.041Z,16.60
2023-05-24T19:44:32.068Z,16.60
2023-05-24T19:46:59.073Z,16.50
2023-05-24T19:49:26.582Z,16.50
2023-05-24T19:51:53.720Z,16.40
2023-05-24T19:54:21.253Z,16.40
2023-05-24T19:56:50.700Z,16.40
2023-05-24T19:59:18.884Z,16.20
2023-05-24T20:01:46.041Z,16.30
2023-05-24T20:04:13.561Z,16.30
2023-05-24T20:06:40.954Z,16.20
2023-05-24T20:09:08.727Z,16.20
2023-05-24T20:11:35.919Z,16.20
2023-05-24T20:14:03.055Z,16.20
2023-05-24T20:16:31.251Z,16.20
2023-05-24T20:18:58.225Z,16.10
2023-05-24T20:21:25.402Z,16.10
2023-05-24T20:23:57.741Z,16.10
2023-05-24T20:26:26.044Z,16.10
2023-05-24T20:28:53.310Z,16.10
2023-05-24T20:31:20.612Z,16.10
2023-05-24T20:33:49.113Z,16.10
2023-05-24T20:36:16.914Z,16.00
2023-05-24T20:38:44.011Z,16.10
2023-05-24T20:41:11.227Z,16.10
2023-05-24T20:43:38.292Z,16.10
2023-05-24T20:46:05.545Z,16.10
2023-05-24T20:48:32.698Z,16.10
2023-05-24T20:50:59.861Z,16.00
2023-05-24T20:53:29.917Z,16.00
2023-05-24T20:55:57.286Z,16.00
2023-05-24T20:58:24.315Z,16.00
2023-05-24T21:00:52.491Z,15.90
2023-05-24T21:03:19.594Z,15.90
2023-05-24T21:05:46.695Z,15.90
2023-05-24T21:08:13.971Z,15.80
2023-05-24T21:10:41.157Z,15.80
2023-05-24T21:13:08.221Z,15.80
2023-05-24T21:15:35.736Z,15.80
2023-05-24T21:18:03.926Z,15.80
2023-05-24T21:20:31.267Z,15.70
2023-05-24T21:22:58.301Z,15.70
2023-05-24T21:25:25.386Z,15.80
2023-05-24T21:27:52.315Z,15.70
2023-05-24T21:30:19.439Z,15.70
2023-05-24T21:32:46.790Z,15.70
2023-05-24T21:35:14.054Z,15.60
2023-05-24T21:37:41.182Z,15.60
2023-05-24T21:40:11.172Z,15.50
2023-05-24T21:42:38.271Z,15.50
2023-05-24T21:45:06.041Z,15.40
2023-05-24T21:47:33.336Z,15.40
2023-05-24T21:50:00.444Z,15.30
2023-05-24T21:52:27.440Z,15.30
2023-05-24T21:54:54.569Z,15.20
2023-05-24T21:57:21.489Z,15.20
2023-05-24T21:59:49.494Z,15.10
2023-05-24T22:02:16.789Z,15.10
2023-05-24T22:04:43.805Z,15.00
2023-05-24T22:07:11.087Z,15.00
2023-05-24T22:09:38.095Z,14.90
2023-05-24T22:12:05.796Z,14.90
2023-05-24T22:14:32.769Z,14.80
2023-05-24T22:16:59.985Z,14.80
2023-05-24T22:19:39.831Z,14.80
2023-05-24T22:22:12.529Z,14.70
2023-05-24T22:24:40.668Z,14.70
2023-05-24T22:27:13.627Z,14.60
2023-05-24T22:29:40.716Z,14.60
2023-05-24T22:32:07.699Z,14.60
2023-05-24T22:34:34.827Z,14.60
2023-05-24T22:37:02.807Z,14.50
2023-05-24T22:39:29.998Z,14.50
2023-05-24T22:41:57.179Z,14.50
2023-05-24T22:44:24.262Z,14.40
2023-05-24T22:46:54.639Z,14.40
2023-05-24T22:49:22.028Z,14.40
2023-05-24T22:51:50.620Z,14.30
2023-05-24T22:54:17.881Z,14.40
2023-05-24T22:56:46.046Z,14.30
2023-05-24T22:59:13.267Z,14.30
2023-05-24T23:01:40.804Z,14.30
2023-05-24T23:04:20.443Z,14.20
2023-05-24T23:06:52.935Z,14.20
2023-05-24T23:09:29.144Z,14.20
2023-05-24T23:11:58.689Z,14.10
2023-05-24T23:14:25.967Z,14.10
2023-05-24T23:16:53.181Z,14.10
2023-05-24T23:19:20.195Z,14.00
2023-05-24T23:21:47.036Z,14.00
2023-05-24T23:24:16.025Z,13.90
2023-05-24T23:26:43.532Z,13.90
2023-05-24T23:29:10.878Z,13.90
2023-05-24T23:31:38.704Z,13.90
2023-05-24T23:34:06.093Z,13.80
2023-05-24T23:36:33.520Z,13.80
2023-05-24T23:39:00.544Z,13.80
2023-05-24T23:41:27.907Z,13.70
2023-05-24T23:43:55.166Z,13.70
2023-05-24T23:46:22.393Z,13.70
2023-05-24T23:48:49.469Z,13.70
2023-05-24T23:51:16.686Z,13.70
2023-05-24T23:53:43.747Z,13.70
2023-05-24T23:56:11.284Z,13.70
2023-05-24T23:58:38.316Z,13.70
